sensor_id;sensor_type;location;lat;lon;timestamp;temperature;humidity
52459;DHT22;38372;52.902;6.024;2023-04-15T00:01:24;5.50;99.90
52459;DHT22;38372;52.902;6.024;2023-04-15T00:03:52;5.50;99.90
52459;DHT22;38372;52.902;6.024;2023-04-15T00:06:19;5.40;99.90
52459;DHT22;38372;52.902;6.024;2023-04-15T00:08:46;5.50;99.90
52459;DHT22;38372;52.902;6.024;2023-04-15T00:11:12;5.40;99.90
52459;DHT22;38372;52.902;6.024;2023-04-15T00:13:38;5.40;99.90
52459;DHT22;38372;52.902;6.024;2023-04-15T00:16:05;5.40;99.90
52459;DHT22;38372;52.902;6.024;2023-04-15T00:18:33;5.30;99.90
52459;DHT22;38372;52.902;6.024;2023-04-15T00:20:59;5.30;99.90
52459;DHT22;38372;52.902;6.024;2023-04-15T00:23:25;5.30;99.90
52459;DHT22;38372;52.902;6.024;2023-04-15T00:25:51;5.20;99.90
52459;DHT22;38372;52.902;6.024;2023-04-15T00:28:17;5.20;99.90
52459;DHT22;38372;52.902;6.024;2023-04-15T00:30:44;5.20;99.90
52459;DHT22;38372;52.902;6.024;2023-04-15T00:33:11;5.20;99.90
52459;DHT22;38372;52.902;6.024;2023-04-15T00:35:37;5.10;99.90
52459;DHT22;38372;52.902;6.024;2023-04-15T00:38:04;5.10;99.90
52459;DHT22;38372;52.902;6.024;2023-04-15T00:40:30;5.10;99.90
52459;DHT22;38372;52.902;6.024;2023-04-15T00:42:56;5.10;99.90
52459;DHT22;38372;52.902;6.024;2023-04-15T00:45:21;5.10;99.90
52459;DHT22;38372;52.902;6.024;2023-04-15T00:47:48;5.10;99.90
52459;DHT22;38372;52.902;6.024;2023-04-15T00:50:15;5.10;99.90
52459;DHT22;38372;52.902;6.024;2023-04-15T00:52:41;5.10;99.90
52459;DHT22;38372;52.902;6.024;2023-04-15T00:55:07;5.10;99.90
52459;DHT22;38372;52.902;6.024;2023-04-15T00:57:34;5.10;99.90
52459;DHT22;38372;52.902;6.024;2023-04-15T01:00:00;5.10;99.90
52459;DHT22;38372;52.902;6.024;2023-04-15T01:02:27;5.10;99.90
52459;DHT22;38372;52.902;6.024;2023-04-15T01:04:53;5.00;99.90
52459;DHT22;38372;52.902;6.024;2023-04-15T01:07:19;5.00;99.90
52459;DHT22;38372;52.902;6.024;2023-04-15T01:09:44;4.90;99.90
52459;DHT22;38372;52.902;6.024;2023-04-15T01:12:12;4.90;99.90
52459;DHT22;38372;52.902;6.024;2023-04-15T01:14:40;4.90;99.90
52459;DHT22;38372;52.902;6.024;2023-04-15T01:17:05;4.80;99.90
52459;DHT22;38372;52.902;6.024;2023-04-15T01:19:32;4.80;99.90
52459;DHT22;38372;52.902;6.024;2023-04-15T01:21:58;4.70;99.90
52459;DHT22;38372;52.902;6.024;2023-04-15T01:24:25;4.70;99.90
52459;DHT22;38372;52.902;6.024;2023-04-15T01:26:52;4.80;99.90
52459;DHT22;38372;52.902;6.024;2023-04-15T01:29:18;4.80;99.90
52459;DHT22;38372;52.902;6.024;2023-04-15T01:31:51;4.70;99.90
52459;DHT22;38372;52.902;6.024;2023-04-15T01:34:17;4.70;99.90
52459;DHT22;38372;52.902;6.024;2023-04-15T01:36:43;4.70;99.90
52459;DHT22;38372;52.902;6.024;2023-04-15T01:39:09;4.60;99.90
52459;DHT22;38372;52.902;6.024;2023-04-15T01:41:35;4.60;99.90
52459;DHT22;38372;52.902;6.024;2023-04-15T01:44:01;4.60;99.90
52459;DHT22;38372;52.902;6.024;2023-04-15T01:46:27;4.60;99.90
52459;DHT22;38372;52.902;6.024;2023-04-15T01:48:52;4.60;99.90
52459;DHT22;38372;52.902;6.024;2023-04-15T01:51:18;4.60;99.90
52459;DHT22;38372;52.902;6.024;2023-04-15T01:53:44;4.60;99.90
52459;DHT22;38372;52.902;6.024;2023-04-15T01:56:11;4.60;99.90
52459;DHT22;38372;52.902;6.024;2023-04-15T01:58:37;4.50;99.90
52459;DHT22;38372;52.902;6.024;2023-04-15T02:01:03;4.60;99.90
52459;DHT22;38372;52.902;6.024;2023-04-15T02:03:29;4.50;99.90
52459;DHT22;38372;52.902;6.024;2023-04-15T02:05:55;4.50;99.90
52459;DHT22;38372;52.902;6.024;2023-04-15T02:08:21;4.40;99.90
52459;DHT22;38372;52.902;6.024;2023-04-15T02:10:47;4.40;99.90
52459;DHT22;38372;52.902;6.024;2023-04-15T02:13:13;4.40;99.90
52459;DHT22;38372;52.902;6.024;2023-04-15T02:15:39;4.30;99.90
52459;DHT22;38372;52.902;6.024;2023-04-15T02:18:04;4.30;99.90
52459;DHT22;38372;52.902;6.024;2023-04-15T02:20:30;4.30;99.90
52459;DHT22;38372;52.902;6.024;2023-04-15T02:22:56;4.30;99.90
52459;DHT22;38372;52.902;6.024;2023-04-15T02:25:22;4.20;99.90
52459;DHT22;38372;52.902;6.024;2023-04-15T02:27:48;4.20;99.90
52459;DHT22;38372;52.902;6.024;2023-04-15T02:30:14;4.20;99.90
52459;DHT22;38372;52.902;6.024;2023-04-15T02:32:40;4.20;99.90
52459;DHT22;38372;52.902;6.024;2023-04-15T02:35:09;4.10;99.90
52459;DHT22;38372;52.902;6.024;2023-04-15T02:37:36;4.10;99.90
52459;DHT22;38372;52.902;6.024;2023-04-15T02:40:08;4.10;99.90
52459;DHT22;38372;52.902;6.024;2023-04-15T02:42:37;4.10;99.90
52459;DHT22;38372;52.902;6.024;2023-04-15T02:45:03;4.10;99.90
52459;DHT22;38372;52.902;6.024;2023-04-15T02:47:29;4.10;99.90
52459;DHT22;38372;52.902;6.024;2023-04-15T02:49:55;4.10;99.90
52459;DHT22;38372;52.902;6.024;2023-04-15T02:52:23;4.00;99.90
52459;DHT22;38372;52.902;6.024;2023-04-15T02:54:49;4.00;99.90
52459;DHT22;38372;52.902;6.024;2023-04-15T02:57:15;3.90;99.90
52459;DHT22;38372;52.902;6.024;2023-04-15T02:59:40;3.90;99.90
52459;DHT22;38372;52.902;6.024;2023-04-15T03:02:06;3.80;99.90
52459;DHT22;38372;52.902;6.024;2023-04-15T03:04:33;3.80;99.90
52459;DHT22;38372;52.902;6.024;2023-04-15T03:06:59;3.80;99.90
52459;DHT22;38372;52.902;6.024;2023-04-15T03:09:25;3.80;99.90
52459;DHT22;38372;52.902;6.024;2023-04-15T03:11:51;3.80;99.90
52459;DHT22;38372;52.902;6.024;2023-04-15T03:14:19;3.80;99.90
52459;DHT22;38372;52.902;6.024;2023-04-15T03:16:45;3.80;99.90
52459;DHT22;38372;52.902;6.024;2023-04-15T03:19:11;3.80;99.90
52459;DHT22;38372;52.902;6.024;2023-04-15T03:21:36;3.70;99.90
52459;DHT22;38372;52.902;6.024;2023-04-15T03:24:02;3.70;99.90
52459;DHT22;38372;52.902;6.024;2023-04-15T03:26:29;3.70;99.90
52459;DHT22;38372;52.902;6.024;2023-04-15T03:28:56;3.70;99.90
52459;DHT22;38372;52.902;6.024;2023-04-15T03:31:22;3.60;99.90
52459;DHT22;38372;52.902;6.024;2023-04-15T03:33:48;3.60;99.90
52459;DHT22;38372;52.902;6.024;2023-04-15T03:36:14;3.60;99.90
52459;DHT22;38372;52.902;6.024;2023-04-15T03:38:41;3.60;99.90
52459;DHT22;38372;52.902;6.024;2023-04-15T03:41:07;3.60;99.90
52459;DHT22;38372;52.902;6.024;2023-04-15T03:43:34;3.50;99.90
52459;DHT22;38372;52.902;6.024;2023-04-15T03:46:00;3.50;99.90
52459;DHT22;38372;52.902;6.024;2023-04-15T03:48:26;3.40;99.90
52459;DHT22;38372;52.902;6.024;2023-04-15T03:50:51;3.40;99.90
52459;DHT22;38372;52.902;6.024;2023-04-15T03:53:19;3.40;99.90
52459;DHT22;38372;52.902;6.024;2023-04-15T03:55:45;3.40;99.90
52459;DHT22;38372;52.902;6.024;2023-04-15T03:58:11;3.40;99.90
52459;DHT22;38372;52.902;6.024;2023-04-15T04:00:38;3.40;99.90
52459;DHT22;38372;52.902;6.024;2023-04-15T04:03:04;3.40;99.90
52459;DHT22;38372;52.902;6.024;2023-04-15T04:05:30;3.40;99.90
52459;DHT22;38372;52.902;6.024;2023-04-15T04:07:56;3.40;99.90
52459;DHT22;38372;52.902;6.024;2023-04-15T04:10:21;3.40;99.90
52459;DHT22;38372;52.902;6.024;2023-04-15T04:12:47;3.50;99.90
52459;DHT22;38372;52.902;6.024;2023-04-15T04:15:13;3.50;99.90
52459;DHT22;38372;52.902;6.024;2023-04-15T04:17:39;3.50;99.90
52459;DHT22;38372;52.902;6.024;2023-04-15T04:20:05;3.50;99.90
52459;DHT22;38372;52.902;6.024;2023-04-15T04:22:36;3.50;99.90
52459;DHT22;38372;52.902;6.024;2023-04-15T04:25:02;3.50;99.90
52459;DHT22;38372;52.902;6.024;2023-04-15T04:27:28;3.50;99.90
52459;DHT22;38372;52.902;6.024;2023-04-15T04:29:54;3.40;99.90
52459;DHT22;38372;52.902;6.024;2023-04-15T04:32:20;3.40;99.90
52459;DHT22;38372;52.902;6.024;2023-04-15T04:34:46;3.40;99.90
52459;DHT22;38372;52.902;6.024;2023-04-15T04:37:12;3.40;99.90
52459;DHT22;38372;52.902;6.024;2023-04-15T04:39:38;3.40;99.90
52459;DHT22;38372;52.902;6.024;2023-04-15T04:42:04;3.40;99.90
52459;DHT22;38372;52.902;6.024;2023-04-15T04:44:30;3.40;99.90
52459;DHT22;38372;52.902;6.024;2023-04-15T04:46:56;3.40;99.90
52459;DHT22;38372;52.902;6.024;2023-04-15T04:49:22;3.30;99.90
52459;DHT22;38372;52.902;6.024;2023-04-15T04:51:48;3.30;99.90
52459;DHT22;38372;52.902;6.024;2023-04-15T04:54:13;3.30;99.90
52459;DHT22;38372;52.902;6.024;2023-04-15T04:56:39;3.30;99.90
52459;DHT22;38372;52.902;6.024;2023-04-15T04:59:05;3.30;99.90
52459;DHT22;38372;52.902;6.024;2023-04-15T05:01:32;3.30;99.90
52459;DHT22;38372;52.902;6.024;2023-04-15T05:03:58;3.30;99.90
52459;DHT22;38372;52.902;6.024;2023-04-15T05:06:24;3.30;99.90
52459;DHT22;38372;52.902;6.024;2023-04-15T05:08:50;3.30;99.90
52459;DHT22;38372;52.902;6.024;2023-04-15T05:11:16;3.40;99.90
52459;DHT22;38372;52.902;6.024;2023-04-15T05:13:42;3.40;99.90
52459;DHT22;38372;52.902;6.024;2023-04-15T05:16:08;3.50;99.90
52459;DHT22;38372;52.902;6.024;2023-04-15T05:18:34;3.50;99.90
52459;DHT22;38372;52.902;6.024;2023-04-15T05:20:59;3.60;99.90
52459;DHT22;38372;52.902;6.024;2023-04-15T05:23:25;3.60;99.90
52459;DHT22;38372;52.902;6.024;2023-04-15T05:25:51;3.70;99.90
52459;DHT22;38372;52.902;6.024;2023-04-15T05:28:17;3.70;99.90
52459;DHT22;38372;52.902;6.024;2023-04-15T05:30:43;3.80;99.90
52459;DHT22;38372;52.902;6.024;2023-04-15T05:33:09;3.90;99.90
52459;DHT22;38372;52.902;6.024;2023-04-15T05:35:35;3.90;99.90
52459;DHT22;38372;52.902;6.024;2023-04-15T05:38:01;4.00;99.90
52459;DHT22;38372;52.902;6.024;2023-04-15T05:40:26;4.00;99.90
52459;DHT22;38372;52.902;6.024;2023-04-15T05:42:52;4.10;99.90
52459;DHT22;38372;52.902;6.024;2023-04-15T05:45:18;4.20;99.90
52459;DHT22;38372;52.902;6.024;2023-04-15T05:47:44;4.30;99.90
52459;DHT22;38372;52.902;6.024;2023-04-15T05:50:10;4.30;99.90
52459;DHT22;38372;52.902;6.024;2023-04-15T05:52:36;4.50;99.90
52459;DHT22;38372;52.902;6.024;2023-04-15T05:55:02;4.60;99.90
52459;DHT22;38372;52.902;6.024;2023-04-15T05:57:27;4.80;99.90
52459;DHT22;38372;52.902;6.024;2023-04-15T05:59:53;5.00;99.90
52459;DHT22;38372;52.902;6.024;2023-04-15T06:02:20;5.20;99.90
52459;DHT22;38372;52.902;6.024;2023-04-15T06:04:46;5.40;99.90
52459;DHT22;38372;52.902;6.024;2023-04-15T06:07:12;5.50;99.90
52459;DHT22;38372;52.902;6.024;2023-04-15T06:09:38;5.70;99.90
52459;DHT22;38372;52.902;6.024;2023-04-15T06:12:04;5.90;99.90
52459;DHT22;38372;52.902;6.024;2023-04-15T06:14:32;6.00;99.90
52459;DHT22;38372;52.902;6.024;2023-04-15T06:16:58;6.20;99.90
52459;DHT22;38372;52.902;6.024;2023-04-15T06:19:24;6.40;99.90
52459;DHT22;38372;52.902;6.024;2023-04-15T06:21:53;6.50;99.90
52459;DHT22;38372;52.902;6.024;2023-04-15T06:24:18;6.60;99.90
52459;DHT22;38372;52.902;6.024;2023-04-15T06:26:44;6.80;99.90
52459;DHT22;38372;52.902;6.024;2023-04-15T06:29:10;6.90;99.90
52459;DHT22;38372;52.902;6.024;2023-04-15T06:31:36;7.10;99.90
52459;DHT22;38372;52.902;6.024;2023-04-15T06:34:02;7.10;99.90
52459;DHT22;38372;52.902;6.024;2023-04-15T06:36:28;7.20;99.90
52459;DHT22;38372;52.902;6.024;2023-04-15T06:38:53;7.20;99.90
52459;DHT22;38372;52.902;6.024;2023-04-15T06:41:19;7.30;99.90
52459;DHT22;38372;52.902;6.024;2023-04-15T06:43:45;7.40;99.90
52459;DHT22;38372;52.902;6.024;2023-04-15T06:46:11;7.50;99.90
52459;DHT22;38372;52.902;6.024;2023-04-15T06:48:36;7.60;99.90
52459;DHT22;38372;52.902;6.024;2023-04-15T06:51:02;7.70;99.90
52459;DHT22;38372;52.902;6.024;2023-04-15T06:53:28;7.90;99.90
52459;DHT22;38372;52.902;6.024;2023-04-15T06:55:54;8.00;99.90
52459;DHT22;38372;52.902;6.024;2023-04-15T06:58:21;8.10;99.90
52459;DHT22;38372;52.902;6.024;2023-04-15T07:00:48;8.30;99.90
52459;DHT22;38372;52.902;6.024;2023-04-15T07:03:14;8.50;99.90
52459;DHT22;38372;52.902;6.024;2023-04-15T07:05:40;8.70;99.90
52459;DHT22;38372;52.902;6.024;2023-04-15T07:08:06;8.80;99.90
52459;DHT22;38372;52.902;6.024;2023-04-15T07:10:35;8.90;99.90
52459;DHT22;38372;52.902;6.024;2023-04-15T07:13:01;9.10;99.90
52459;DHT22;38372;52.902;6.024;2023-04-15T07:15:27;9.20;99.90
52459;DHT22;38372;52.902;6.024;2023-04-15T07:17:53;9.30;99.90
52459;DHT22;38372;52.902;6.024;2023-04-15T07:20:19;9.40;99.90
52459;DHT22;38372;52.902;6.024;2023-04-15T07:22:45;9.50;99.90
52459;DHT22;38372;52.902;6.024;2023-04-15T07:25:10;9.60;99.90
52459;DHT22;38372;52.902;6.024;2023-04-15T07:27:36;9.60;99.90
52459;DHT22;38372;52.902;6.024;2023-04-15T07:30:02;9.70;99.90
52459;DHT22;38372;52.902;6.024;2023-04-15T07:32:28;9.70;99.90
52459;DHT22;38372;52.902;6.024;2023-04-15T07:34:54;9.80;99.90
52459;DHT22;38372;52.902;6.024;2023-04-15T07:37:20;9.80;99.90
52459;DHT22;38372;52.902;6.024;2023-04-15T07:39:45;9.80;99.90
52459;DHT22;38372;52.902;6.024;2023-04-15T07:42:11;9.80;99.90
52459;DHT22;38372;52.902;6.024;2023-04-15T07:44:37;9.80;99.90
52459;DHT22;38372;52.902;6.024;2023-04-15T07:47:03;9.80;99.90
52459;DHT22;38372;52.902;6.024;2023-04-15T07:49:29;9.80;99.90
52459;DHT22;38372;52.902;6.024;2023-04-15T07:51:55;9.80;99.90
52459;DHT22;38372;52.902;6.024;2023-04-15T07:54:22;9.90;99.90
52459;DHT22;38372;52.902;6.024;2023-04-15T07:56:47;9.90;99.90
52459;DHT22;38372;52.902;6.024;2023-04-15T07:59:14;10.00;99.90
52459;DHT22;38372;52.902;6.024;2023-04-15T08:01:42;10.10;99.90
52459;DHT22;38372;52.902;6.024;2023-04-15T08:04:08;10.40;99.90
52459;DHT22;38372;52.902;6.024;2023-04-15T08:06:34;10.60;99.90
52459;DHT22;38372;52.902;6.024;2023-04-15T08:09:01;10.80;99.90
52459;DHT22;38372;52.902;6.024;2023-04-15T08:11:27;11.00;99.90
52459;DHT22;38372;52.902;6.024;2023-04-15T08:13:52;11.20;99.90
52459;DHT22;38372;52.902;6.024;2023-04-15T08:16:21;11.40;99.90
52459;DHT22;38372;52.902;6.024;2023-04-15T08:18:48;11.50;99.90
52459;DHT22;38372;52.902;6.024;2023-04-15T08:21:15;11.60;99.90
52459;DHT22;38372;52.902;6.024;2023-04-15T08:23:42;11.70;99.90
52459;DHT22;38372;52.902;6.024;2023-04-15T08:26:08;11.90;99.90
52459;DHT22;38372;52.902;6.024;2023-04-15T08:28:35;12.00;99.90
52459;DHT22;38372;52.902;6.024;2023-04-15T08:31:01;12.20;99.90
52459;DHT22;38372;52.902;6.024;2023-04-15T08:33:27;12.20;99.90
52459;DHT22;38372;52.902;6.024;2023-04-15T08:35:53;12.30;99.90
52459;DHT22;38372;52.902;6.024;2023-04-15T08:38:19;12.30;99.90
52459;DHT22;38372;52.902;6.024;2023-04-15T08:40:45;12.20;99.90
52459;DHT22;38372;52.902;6.024;2023-04-15T08:43:22;12.20;99.90
52459;DHT22;38372;52.902;6.024;2023-04-15T08:45:53;12.20;99.90
52459;DHT22;38372;52.902;6.024;2023-04-15T08:48:20;12.10;99.90
52459;DHT22;38372;52.902;6.024;2023-04-15T08:50:47;12.10;99.90
52459;DHT22;38372;52.902;6.024;2023-04-15T08:53:13;12.20;99.90
52459;DHT22;38372;52.902;6.024;2023-04-15T08:55:44;12.10;99.90
52459;DHT22;38372;52.902;6.024;2023-04-15T08:58:11;12.00;99.90
52459;DHT22;38372;52.902;6.024;2023-04-15T09:00:38;11.90;99.90
52459;DHT22;38372;52.902;6.024;2023-04-15T09:03:05;11.80;99.90
52459;DHT22;38372;52.902;6.024;2023-04-15T09:05:35;11.80;99.90
52459;DHT22;38372;52.902;6.024;2023-04-15T09:08:02;11.70;99.90
52459;DHT22;38372;52.902;6.024;2023-04-15T09:10:28;11.50;99.90
52459;DHT22;38372;52.902;6.024;2023-04-15T09:12:55;11.50;99.90
52459;DHT22;38372;52.902;6.024;2023-04-15T09:15:24;11.40;99.90
52459;DHT22;38372;52.902;6.024;2023-04-15T09:17:50;11.40;99.90
52459;DHT22;38372;52.902;6.024;2023-04-15T09:20:16;11.40;99.90
52459;DHT22;38372;52.902;6.024;2023-04-15T09:22:46;11.50;99.90
52459;DHT22;38372;52.902;6.024;2023-04-15T09:27:51;12.00;99.90
52459;DHT22;38372;52.902;6.024;2023-04-15T09:30:17;12.00;99.90
52459;DHT22;38372;52.902;6.024;2023-04-15T09:32:57;11.90;99.90
52459;DHT22;38372;52.902;6.024;2023-04-15T09:35:24;11.80;99.90
52459;DHT22;38372;52.902;6.024;2023-04-15T09:37:51;11.80;99.90
52459;DHT22;38372;52.902;6.024;2023-04-15T09:43:01;11.80;99.90
52459;DHT22;38372;52.902;6.024;2023-04-15T09:45:28;11.80;99.90
52459;DHT22;38372;52.902;6.024;2023-04-15T09:47:58;11.90;99.90
52459;DHT22;38372;52.902;6.024;2023-04-15T09:50:28;12.20;99.90
52459;DHT22;38372;52.902;6.024;2023-04-15T09:52:54;12.80;99.90
52459;DHT22;38372;52.902;6.024;2023-04-15T09:55:20;13.20;99.90
52459;DHT22;38372;52.902;6.024;2023-04-15T09:57:46;13.30;99.90
52459;DHT22;38372;52.902;6.024;2023-04-15T10:00:12;13.20;99.90
52459;DHT22;38372;52.902;6.024;2023-04-15T10:02:42;12.90;99.90
52459;DHT22;38372;52.902;6.024;2023-04-15T10:05:13;12.60;99.90
52459;DHT22;38372;52.902;6.024;2023-04-15T10:07:39;12.40;99.90
52459;DHT22;38372;52.902;6.024;2023-04-15T10:10:08;12.30;99.90
52459;DHT22;38372;52.902;6.024;2023-04-15T10:12:36;12.20;99.90
52459;DHT22;38372;52.902;6.024;2023-04-15T10:15:04;12.10;99.90
52459;DHT22;38372;52.902;6.024;2023-04-15T10:17:32;12.10;99.90
52459;DHT22;38372;52.902;6.024;2023-04-15T10:20:03;12.10;99.90
52459;DHT22;38372;52.902;6.024;2023-04-15T10:22:30;12.40;99.90
52459;DHT22;38372;52.902;6.024;2023-04-15T10:24:57;12.50;99.90
52459;DHT22;38372;52.902;6.024;2023-04-15T10:27:24;12.70;99.90
52459;DHT22;38372;52.902;6.024;2023-04-15T10:29:51;12.80;99.90
52459;DHT22;38372;52.902;6.024;2023-04-15T10:32:20;12.90;99.90
52459;DHT22;38372;52.902;6.024;2023-04-15T10:34:48;12.80;99.90
52459;DHT22;38372;52.902;6.024;2023-04-15T10:37:20;12.90;99.90
52459;DHT22;38372;52.902;6.024;2023-04-15T10:39:46;12.90;99.90
52459;DHT22;38372;52.902;6.024;2023-04-15T10:42:17;12.90;99.90
52459;DHT22;38372;52.902;6.024;2023-04-15T10:44:50;13.10;99.90
52459;DHT22;38372;52.902;6.024;2023-04-15T10:47:20;13.00;99.90
52459;DHT22;38372;52.902;6.024;2023-04-15T10:49:50;12.90;99.90
52459;DHT22;38372;52.902;6.024;2023-04-15T10:52:21;12.80;99.90
52459;DHT22;38372;52.902;6.024;2023-04-15T10:54:47;12.70;99.90
52459;DHT22;38372;52.902;6.024;2023-04-15T10:57:21;12.80;99.90
52459;DHT22;38372;52.902;6.024;2023-04-15T11:05:07;12.70;99.90
52459;DHT22;38372;52.902;6.024;2023-04-15T11:07:40;12.50;99.90
52459;DHT22;38372;52.902;6.024;2023-04-15T11:12:58;12.20;99.90
52459;DHT22;38372;52.902;6.024;2023-04-15T11:15:28;12.20;99.90
52459;DHT22;38372;52.902;6.024;2023-04-15T11:17:55;12.20;99.90
52459;DHT22;38372;52.902;6.024;2023-04-15T11:20:22;12.20;99.90
52459;DHT22;38372;52.902;6.024;2023-04-15T11:22:52;12.00;99.90
52459;DHT22;38372;52.902;6.024;2023-04-15T11:25:29;11.90;99.90
52459;DHT22;38372;52.902;6.024;2023-04-15T11:27:57;11.80;99.90
52459;DHT22;38372;52.902;6.024;2023-04-15T11:30:26;11.70;99.90
52459;DHT22;38372;52.902;6.024;2023-04-15T11:32:54;11.70;99.90
52459;DHT22;38372;52.902;6.024;2023-04-15T11:35:20;11.60;99.90
52459;DHT22;38372;52.902;6.024;2023-04-15T11:37:48;11.60;99.90
52459;DHT22;38372;52.902;6.024;2023-04-15T11:40:15;11.60;99.90
52459;DHT22;38372;52.902;6.024;2023-04-15T11:42:45;11.50;99.90
52459;DHT22;38372;52.902;6.024;2023-04-15T11:45:13;11.50;99.90
52459;DHT22;38372;52.902;6.024;2023-04-15T11:47:41;11.40;99.90
52459;DHT22;38372;52.902;6.024;2023-04-15T11:50:17;11.40;99.90
52459;DHT22;38372;52.902;6.024;2023-04-15T11:52:59;11.30;99.90
52459;DHT22;38372;52.902;6.024;2023-04-15T11:55:29;11.30;99.90
52459;DHT22;38372;52.902;6.024;2023-04-15T11:58:08;11.20;99.90
52459;DHT22;38372;52.902;6.024;2023-04-15T12:00:35;11.10;99.90
52459;DHT22;38372;52.902;6.024;2023-04-15T12:03:35;11.00;99.90
52459;DHT22;38372;52.902;6.024;2023-04-15T12:06:23;10.90;99.90
52459;DHT22;38372;52.902;6.024;2023-04-15T12:09:09;10.70;99.90
52459;DHT22;38372;52.902;6.024;2023-04-15T12:11:46;10.60;99.90
52459;DHT22;38372;52.902;6.024;2023-04-15T12:14:29;10.50;99.90
52459;DHT22;38372;52.902;6.024;2023-04-15T12:17:04;10.60;99.90
52459;DHT22;38372;52.902;6.024;2023-04-15T12:19:37;10.70;99.90
52459;DHT22;38372;52.902;6.024;2023-04-15T12:22:04;10.60;99.90
52459;DHT22;38372;52.902;6.024;2023-04-15T12:24:35;10.50;99.90
52459;DHT22;38372;52.902;6.024;2023-04-15T12:27:01;10.40;99.90
52459;DHT22;38372;52.902;6.024;2023-04-15T12:29:29;10.30;99.90
52459;DHT22;38372;52.902;6.024;2023-04-15T12:34:51;10.20;99.90
52459;DHT22;38372;52.902;6.024;2023-04-15T12:37:17;10.30;99.90
52459;DHT22;38372;52.902;6.024;2023-04-15T12:39:45;10.30;99.90
52459;DHT22;38372;52.902;6.024;2023-04-15T12:42:14;10.40;99.90
52459;DHT22;38372;52.902;6.024;2023-04-15T12:44:40;10.40;99.90
52459;DHT22;38372;52.902;6.024;2023-04-15T12:47:07;10.40;99.90
52459;DHT22;38372;52.902;6.024;2023-04-15T12:49:33;10.50;99.90
52459;DHT22;38372;52.902;6.024;2023-04-15T12:52:00;10.40;99.90
52459;DHT22;38372;52.902;6.024;2023-04-15T12:54:27;10.30;99.90
52459;DHT22;38372;52.902;6.024;2023-04-15T12:56:53;10.30;99.90
52459;DHT22;38372;52.902;6.024;2023-04-15T12:59:20;10.20;99.90
52459;DHT22;38372;52.902;6.024;2023-04-15T13:01:47;10.20;99.90
52459;DHT22;38372;52.902;6.024;2023-04-15T13:04:13;10.20;99.90
52459;DHT22;38372;52.902;6.024;2023-04-15T13:06:39;10.10;99.90
52459;DHT22;38372;52.902;6.024;2023-04-15T13:09:06;10.00;99.90
52459;DHT22;38372;52.902;6.024;2023-04-15T13:11:32;10.00;99.90
52459;DHT22;38372;52.902;6.024;2023-04-15T13:14:04;10.00;99.90
52459;DHT22;38372;52.902;6.024;2023-04-15T13:16:30;10.10;99.90
52459;DHT22;38372;52.902;6.024;2023-04-15T13:19:00;10.20;99.90
52459;DHT22;38372;52.902;6.024;2023-04-15T13:21:26;10.20;99.90
52459;DHT22;38372;52.902;6.024;2023-04-15T13:23:53;10.10;99.90
52459;DHT22;38372;52.902;6.024;2023-04-15T13:26:18;10.00;99.90
52459;DHT22;38372;52.902;6.024;2023-04-15T13:28:44;10.00;99.90
52459;DHT22;38372;52.902;6.024;2023-04-15T13:31:11;10.00;99.90
52459;DHT22;38372;52.902;6.024;2023-04-15T13:33:37;10.00;99.90
52459;DHT22;38372;52.902;6.024;2023-04-15T13:36:02;10.00;99.90
52459;DHT22;38372;52.902;6.024;2023-04-15T13:38:28;10.00;99.90
52459;DHT22;38372;52.902;6.024;2023-04-15T13:40:54;10.00;99.90
52459;DHT22;38372;52.902;6.024;2023-04-15T13:43:20;10.00;99.90
52459;DHT22;38372;52.902;6.024;2023-04-15T13:45:46;10.00;99.90
52459;DHT22;38372;52.902;6.024;2023-04-15T13:48:13;9.90;99.90
52459;DHT22;38372;52.902;6.024;2023-04-15T13:50:38;9.90;99.90
52459;DHT22;38372;52.902;6.024;2023-04-15T13:53:05;10.00;99.90
52459;DHT22;38372;52.902;6.024;2023-04-15T13:55:31;10.10;99.90
52459;DHT22;38372;52.902;6.024;2023-04-15T13:57:59;10.10;99.90
52459;DHT22;38372;52.902;6.024;2023-04-15T14:00:25;10.10;99.90
52459;DHT22;38372;52.902;6.024;2023-04-15T14:02:51;10.10;99.90
52459;DHT22;38372;52.902;6.024;2023-04-15T14:05:16;10.10;99.90
52459;DHT22;38372;52.902;6.024;2023-04-15T14:07:42;10.00;99.90
52459;DHT22;38372;52.902;6.024;2023-04-15T14:10:08;10.10;99.90
52459;DHT22;38372;52.902;6.024;2023-04-15T14:12:34;10.10;99.90
52459;DHT22;38372;52.902;6.024;2023-04-15T14:15:00;10.10;99.90
52459;DHT22;38372;52.902;6.024;2023-04-15T14:17:26;10.10;99.90
52459;DHT22;38372;52.902;6.024;2023-04-15T14:19:52;10.10;99.90
52459;DHT22;38372;52.902;6.024;2023-04-15T14:22:18;10.20;99.90
52459;DHT22;38372;52.902;6.024;2023-04-15T14:24:44;10.10;99.90
52459;DHT22;38372;52.902;6.024;2023-04-15T14:27:10;10.10;99.90
52459;DHT22;38372;52.902;6.024;2023-04-15T14:29:37;10.10;99.90
52459;DHT22;38372;52.902;6.024;2023-04-15T14:32:03;10.10;99.90
52459;DHT22;38372;52.902;6.024;2023-04-15T14:34:29;10.10;99.90
52459;DHT22;38372;52.902;6.024;2023-04-15T14:36:55;10.10;99.90
52459;DHT22;38372;52.902;6.024;2023-04-15T14:39:21;10.10;99.90
52459;DHT22;38372;52.902;6.024;2023-04-15T14:41:48;10.10;99.90
52459;DHT22;38372;52.902;6.024;2023-04-15T14:44:14;10.00;99.90
52459;DHT22;38372;52.902;6.024;2023-04-15T14:46:39;9.90;99.90
52459;DHT22;38372;52.902;6.024;2023-04-15T14:49:06;9.90;99.90
52459;DHT22;38372;52.902;6.024;2023-04-15T14:51:32;9.80;99.90
52459;DHT22;38372;52.902;6.024;2023-04-15T14:53:58;9.80;99.90
52459;DHT22;38372;52.902;6.024;2023-04-15T14:56:24;9.70;99.90
52459;DHT22;38372;52.902;6.024;2023-04-15T14:58:49;9.60;99.90
52459;DHT22;38372;52.902;6.024;2023-04-15T15:01:18;9.70;99.90
52459;DHT22;38372;52.902;6.024;2023-04-15T15:03:45;9.60;99.90
52459;DHT22;38372;52.902;6.024;2023-04-15T15:06:11;9.60;99.90
52459;DHT22;38372;52.902;6.024;2023-04-15T15:08:37;9.60;99.90
52459;DHT22;38372;52.902;6.024;2023-04-15T15:11:06;9.60;99.90
52459;DHT22;38372;52.902;6.024;2023-04-15T15:13:37;9.50;99.90
52459;DHT22;38372;52.902;6.024;2023-04-15T15:16:03;9.50;99.90
52459;DHT22;38372;52.902;6.024;2023-04-15T15:18:29;9.40;99.90
52459;DHT22;38372;52.902;6.024;2023-04-15T15:20:54;9.40;99.90
52459;DHT22;38372;52.902;6.024;2023-04-15T15:23:20;9.40;99.90
52459;DHT22;38372;52.902;6.024;2023-04-15T15:25:46;9.30;99.90
52459;DHT22;38372;52.902;6.024;2023-04-15T15:28:12;9.30;99.90
52459;DHT22;38372;52.902;6.024;2023-04-15T15:30:38;9.30;99.90
52459;DHT22;38372;52.902;6.024;2023-04-15T15:33:03;9.30;99.90
52459;DHT22;38372;52.902;6.024;2023-04-15T15:35:29;9.30;99.90
52459;DHT22;38372;52.902;6.024;2023-04-15T15:37:55;9.20;99.90
52459;DHT22;38372;52.902;6.024;2023-04-15T15:40:21;9.20;99.90
52459;DHT22;38372;52.902;6.024;2023-04-15T15:42:46;9.20;99.90
52459;DHT22;38372;52.902;6.024;2023-04-15T15:45:15;9.10;99.90
52459;DHT22;38372;52.902;6.024;2023-04-15T15:47:41;9.10;99.90
52459;DHT22;38372;52.902;6.024;2023-04-15T15:50:07;9.10;99.90
52459;DHT22;38372;52.902;6.024;2023-04-15T15:52:33;9.10;99.90
52459;DHT22;38372;52.902;6.024;2023-04-15T15:54:59;9.00;99.90